createdAt,value
2022-10-18T06:12:47.081Z,18.4
2022-10-18T06:18:29.098Z,18.4
2022-10-18T06:24:05.222Z,18.4
2022-10-18T06:29:49.418Z,18.4
2022-10-18T06:35:26.937Z,18.4
2022-10-18T06:41:07.972Z,18.4
2022-10-18T06:47:03.783Z,18.4
2022-10-18T06:52:41.647Z,18.4
2022-10-18T06:58:41.910Z,18.4
2022-10-18T07:04:20.373Z,18.4
2022-10-18T07:09:58.851Z,18.4
2022-10-18T07:16:18.105Z,18.4
2022-10-18T07:21:56.844Z,18.4
2022-10-18T07:27:38.628Z,18.4
2022-10-18T07:33:03.493Z,18.4
2022-10-18T07:38:42.907Z,18.4
2022-10-18T07:44:20.747Z,18.4
2022-10-18T07:49:47.082Z,18.3
2022-10-18T07:55:10.078Z,18.1
2022-10-18T08:00:20.641Z,18
2022-10-18T08:06:03.629Z,18
2022-10-18T08:11:44.833Z,17.9
2022-10-18T08:17:06.748Z,17.9
2022-10-18T08:23:17.252Z,17.8
2022-10-18T08:29:10.127Z,17.8
2022-10-18T08:34:39.941Z,17.7
2022-10-18T08:40:18.107Z,17.7
2022-10-18T08:46:15.468Z,17.6
2022-10-18T08:51:58.765Z,17.6
2022-10-18T08:57:35.858Z,17.6
2022-10-18T09:03:04.194Z,17.5
2022-10-18T09:08:42.290Z,17.5
2022-10-18T09:14:20.078Z,17.5
2022-10-18T09:19:30.322Z,17.5
2022-10-18T09:25:11.891Z,17.5
2022-10-18T09:30:33.338Z,17.5
2022-10-18T09:36:12.065Z,17.5
2022-10-18T09:41:51.889Z,17.4
2022-10-18T09:47:32.940Z,17.4
2022-10-18T09:52:55.695Z,17.5
2022-10-18T09:58:38.701Z,17.5
2022-10-18T10:04:16.960Z,17.5
2022-10-18T10:09:57.727Z,17.5
2022-10-18T10:15:37.180Z,17.5
2022-10-18T14:37:40.588Z,18.4
2022-10-18T14:43:18.319Z,18.3
2022-10-18T14:48:58.886Z,18.4
2022-10-18T14:54:42.778Z,18.4
2022-10-18T15:00:20.779Z,18.4
2022-10-18T15:05:57.785Z,18.4
2022-10-18T15:11:35.782Z,18.4
2022-10-18T15:17:38.264Z,18.4
2022-10-18T15:23:26.365Z,18.4
2022-10-18T15:29:09.380Z,18.4
2022-10-18T15:34:47.604Z,18.4
2022-10-18T15:40:30.003Z,18.4
2022-10-18T15:46:11.129Z,18.4
2022-10-18T15:51:49.136Z,18.4
2022-10-18T15:57:26.752Z,18.4
2022-10-18T16:03:07.083Z,18.4
2022-10-18T16:08:30.853Z,18.4
2022-10-18T16:13:55.089Z,18.4
2022-10-18T16:19:05.097Z,18.4
2022-10-18T16:24:18.023Z,18.4
2022-10-18T16:29:40.289Z,18.4
2022-10-18T16:34:47.886Z,18.4
2022-10-18T16:40:13.855Z,18.4
2022-10-18T16:45:36.173Z,18.4
2022-10-18T16:50:52.124Z,18.4
2022-10-18T16:55:57.833Z,18.4
2022-10-18T17:01:06.662Z,18.4
2022-10-18T17:06:00.822Z,18.4
2022-10-18T17:10:52.332Z,18.4
2022-10-18T17:15:58.596Z,18.4
2022-10-18T17:21:11.777Z,18.4
2022-10-18T17:27:01.145Z,18.4
2022-10-18T17:32:23.359Z,18.4
2022-10-18T17:37:46.073Z,18.4
2022-10-18T17:43:08.883Z,18.5
2022-10-18T17:48:33.681Z,18.4
2022-10-18T17:54:04.146Z,18.4
2022-10-18T17:59:27.685Z,18.5
2022-10-18T18:04:38.788Z,18.5
2022-10-18T18:09:45.842Z,18.5
2022-10-18T18:15:12.601Z,18.5
2022-10-18T18:20:49.680Z,18.5
2022-10-18T18:26:30.914Z,18.5
2022-10-18T18:31:47.238Z,18.5
2022-10-18T18:37:24.608Z,18.5
2022-10-18T18:42:31.339Z,18.5
